Lantana, FL

12:37 PM EST on February 07, 2016 (GMT -0500)
Island Estates | | Change Station
CLOSE
Current Station
Personal Weather Station
Location: Lantana, FL
Elevation: 45 ft
Nearby Weather Stations

Elev 45 ft 26.57 °N, 80.08 °W | Updated 2 minutes ago

Overcast
Overcast
56.1 °F
Feels Like 56.1 °F
N
13.0
Wind Variable Wind from West
Gusts 14.0 mph

Today
High -- | Low -- °F
--% Chance of Precip.
Yesterday
High -- | Low -- °F
Precip. -- in
Pressure 30.05 in
Visibility 10.0 miles
Clouds Mostly Cloudy 2000 ft
Overcast 9000 ft
Dew Point 48 °F
Humidity 73%
Rainfall 0.30 in
Snow Depth Not available.
7:02 AM 6:06 PM
Waning Crescent, 1% visible
METAR KPBI 071653Z 29020G26KT 10SM BKN020 OVC090 13/08 A3005 RMK AO2 PK WND 28026/1645 SLP175 T01280078 $
Pressure 30.05 in
Visibility 10.0 miles
Clouds Mostly Cloudy 2000 ft
Overcast 9000 ft
Dew Point 48 °F
Humidity 73%
Rainfall 0.30 in
Snow Depth Not available.
7:02 AM 6:06 PM
Waning Crescent, 1% visible
METAR KPBI 071653Z 29020G26KT 10SM BKN020 OVC090 13/08 A3005 RMK AO2 PK WND 28026/1645 SLP175 T01280078 $

10-Day Weather Forecast

Almanac

Astronomy

Feb. 07, 2016 Rise Set
Actual Time
Civil Twilight
Nautical Twilight
Astronomical Twilight
Moon
Length of Visible Light
Length of Day
Tomorrow will be .
, % of the Moon is Illuminated

Today's Extremes

State Highs State Lows

Community

WunderPhotos

Upload Photos

1,891,244 photos uploaded!

WunderBlog® & News

Nearby

Air Quality

  Air Quality AQ Index Pollutant
Not available.

Snow Depth

Station Depth Elevation

Earthquake Activity

City Distance Mag. Time & Date
Minimum magnitude displayed is 2.5.

Coastal Water Temperatures

Place Temperature

Stations

Nearby Weather Stations

Station Location Temp. Windchill Dew Point Humidity Wind Precip. Elev Updated Type
                   

Watches & Warnings

There are currently no watches in effect.